createdAt,value
2019-02-14T00:01:50.192Z,7.47
2019-02-14T00:04:18.416Z,6.92
2019-02-14T00:06:46.648Z,7.10
2019-02-14T00:09:14.864Z,7.22
2019-02-14T00:11:43.116Z,6.67
2019-02-14T00:14:11.344Z,7.15
2019-02-14T00:16:39.572Z,7.15
2019-02-14T00:19:08.120Z,7.90
2019-02-14T00:21:36.340Z,7.22
2019-02-14T00:24:04.555Z,6.70
2019-02-14T00:26:32.796Z,7.72
2019-02-14T00:29:01.020Z,7.15
2019-02-14T00:31:29.249Z,7.03
2019-02-14T00:33:57.745Z,7.55
2019-02-14T00:36:25.976Z,6.87
2019-02-14T00:38:54.210Z,6.47
2019-02-14T00:41:22.717Z,6.53
2019-02-14T00:43:50.941Z,6.10
2019-02-14T00:46:19.171Z,6.50
2019-02-14T00:48:47.391Z,6.90
2019-02-14T00:51:15.872Z,6.95
2019-02-14T00:53:44.093Z,7.25
2019-02-14T00:56:12.352Z,6.75
2019-02-14T00:58:40.577Z,7.28
2019-02-14T01:01:08.804Z,7.45
2019-02-14T01:03:37.019Z,7.00
2019-02-14T01:06:05.259Z,7.17
2019-02-14T01:08:33.496Z,7.05
2019-02-14T01:11:01.723Z,7.00
2019-02-14T01:13:30.112Z,7.97
2019-02-14T01:15:58.514Z,6.72
2019-02-14T01:18:26.752Z,6.67
2019-02-14T01:20:54.997Z,6.92
2019-02-14T01:23:23.240Z,6.92
2019-02-14T01:25:51.471Z,7.25
2019-02-14T01:28:19.699Z,6.78
2019-02-14T01:30:47.944Z,6.55
2019-02-14T01:33:16.171Z,6.70
2019-02-14T01:35:44.396Z,6.40
2019-02-14T01:38:13.052Z,6.83
2019-02-14T01:40:41.387Z,6.62
2019-02-14T01:43:09.612Z,6.12
2019-02-14T01:45:37.836Z,6.50
2019-02-14T01:48:06.052Z,6.50
2019-02-14T01:50:34.324Z,6.40
2019-02-14T01:53:02.612Z,6.37
2019-02-14T01:55:32.513Z,6.75
2019-02-14T01:58:00.948Z,6.17
2019-02-14T02:00:29.178Z,7.70
2019-02-14T02:02:57.391Z,7.33
2019-02-14T02:05:25.640Z,6.70
2019-02-14T02:07:53.872Z,6.65
2019-02-14T02:10:22.176Z,6.60
2019-02-14T02:12:50.756Z,6.80
2019-02-14T02:15:18.976Z,6.92
2019-02-14T02:17:47.201Z,5.83
2019-02-14T02:20:15.432Z,6.40
2019-02-14T02:22:43.647Z,6.80
2019-02-14T02:25:12.255Z,7.05
2019-02-14T02:27:40.488Z,6.95
2019-02-14T02:30:13.844Z,6.30
2019-02-14T02:32:42.437Z,6.85
2019-02-14T02:35:10.688Z,6.47
2019-02-14T02:37:38.903Z,6.53
2019-02-14T02:40:08.753Z,6.20
2019-02-14T02:42:36.973Z,6.40
2019-02-14T02:45:08.745Z,5.83
2019-02-14T02:47:37.237Z,6.15
2019-02-14T02:50:08.227Z,6.80
2019-02-14T02:55:05.677Z,5.90
2019-02-14T02:57:33.912Z,6.50
2019-02-14T03:00:02.140Z,6.40
2019-02-14T03:02:30.361Z,6.40
2019-02-14T03:04:58.618Z,6.47
2019-02-14T03:07:26.862Z,6.50
2019-02-14T03:09:55.072Z,6.65
2019-02-14T03:12:23.292Z,6.42
2019-02-14T03:14:51.553Z,6.20
2019-02-14T03:17:20.096Z,6.37
2019-02-14T03:19:48.296Z,6.40
2019-02-14T03:22:16.877Z,6.55
2019-02-14T03:24:45.087Z,6.50
2019-02-14T03:27:13.672Z,6.10
2019-02-14T03:29:41.875Z,5.95
2019-02-14T03:32:10.098Z,6.47
2019-02-14T03:34:38.311Z,6.75
2019-02-14T03:37:06.548Z,5.92
2019-02-14T03:39:34.763Z,6.30
2019-02-14T03:42:03.011Z,6.85
2019-02-14T03:44:31.216Z,6.53
2019-02-14T03:46:59.470Z,6.15
2019-02-14T03:49:27.951Z,6.53
2019-02-14T03:51:56.440Z,6.55
2019-02-14T03:54:24.680Z,6.40
2019-02-14T03:56:53.155Z,6.28
2019-02-14T03:59:21.612Z,6.67
2019-02-14T04:01:49.865Z,6.05
2019-02-14T04:04:18.096Z,5.83
2019-02-14T04:06:46.582Z,6.37
2019-02-14T04:09:14.800Z,6.47
2019-02-14T04:11:43.028Z,6.33
2019-02-14T04:14:30.725Z,6.35
2019-02-14T04:16:58.956Z,6.50
2019-02-14T04:19:27.172Z,5.60
2019-02-14T04:21:55.426Z,6.80
2019-02-14T04:24:23.971Z,6.10
2019-02-14T04:26:52.196Z,5.55
2019-02-14T04:29:20.428Z,5.85
2019-02-14T04:31:48.786Z,6.25
2019-02-14T04:34:17.003Z,6.20
2019-02-14T04:36:45.227Z,6.40
2019-02-14T04:39:13.444Z,6.12
2019-02-14T04:41:41.700Z,6.33
2019-02-14T04:44:09.912Z,5.97
2019-02-14T04:46:38.465Z,5.90
2019-02-14T04:49:06.676Z,6.17
2019-02-14T04:51:34.913Z,5.90
2019-02-14T04:54:03.130Z,5.97
2019-02-14T04:56:31.356Z,5.70
2019-02-14T04:58:59.908Z,6.47
2019-02-14T05:01:28.144Z,5.95
2019-02-14T05:03:56.360Z,5.80
2019-02-14T05:06:24.596Z,6.25
2019-02-14T05:08:52.812Z,6.00
2019-02-14T05:11:21.040Z,5.92
2019-02-14T05:13:49.260Z,5.75
2019-02-14T05:16:17.503Z,6.12
2019-02-14T05:18:45.719Z,6.40
2019-02-14T05:21:13.933Z,5.92
2019-02-14T05:23:42.160Z,6.33
2019-02-14T05:26:10.380Z,5.75
2019-02-14T05:28:38.866Z,6.37
2019-02-14T05:31:07.080Z,5.62
2019-02-14T05:33:35.312Z,6.20
2019-02-14T05:36:03.528Z,6.45
2019-02-14T05:38:31.772Z,6.28
2019-02-14T05:41:00.026Z,6.53
2019-02-14T05:43:28.304Z,7.20
2019-02-14T05:45:57.208Z,5.83
2019-02-14T05:48:25.449Z,6.15
2019-02-14T05:50:53.727Z,6.05
2019-02-14T05:53:21.956Z,6.62
2019-02-14T05:55:50.472Z,6.42
2019-02-14T05:58:18.700Z,6.53
2019-02-14T06:00:46.917Z,6.30
2019-02-14T06:03:15.168Z,6.53
2019-02-14T06:05:43.404Z,6.67
2019-02-14T06:08:11.636Z,6.75
2019-02-14T06:10:39.851Z,6.45
2019-02-14T06:13:08.099Z,6.75
2019-02-14T06:15:36.388Z,6.67
2019-02-14T06:18:04.612Z,5.95
2019-02-14T06:20:33.093Z,5.95
2019-02-14T06:23:01.641Z,6.22
2019-02-14T06:25:30.137Z,6.33
2019-02-14T06:27:58.364Z,6.08
2019-02-14T06:30:27.020Z,5.35
2019-02-14T06:32:55.248Z,6.17
2019-02-14T06:35:23.462Z,6.33
2019-02-14T06:37:51.856Z,5.83
2019-02-14T06:40:20.087Z,6.22
2019-02-14T06:42:48.324Z,6.15
2019-02-14T06:45:20.840Z,6.40
2019-02-14T06:47:49.084Z,6.90
2019-02-14T06:50:17.356Z,6.53
2019-02-14T06:52:45.653Z,6.40
2019-02-14T06:55:13.873Z,6.80
2019-02-14T06:57:42.194Z,6.35
2019-02-14T07:00:17.094Z,6.67
2019-02-14T07:02:45.324Z,6.58
2019-02-14T07:05:13.543Z,6.20
2019-02-14T07:07:41.760Z,7.35
2019-02-14T07:10:11.252Z,8.10
2019-02-14T07:12:39.532Z,6.60
2019-02-14T07:15:13.792Z,6.53
2019-02-14T07:17:42.019Z,6.50
2019-02-14T07:20:13.064Z,6.65
2019-02-14T07:25:11.046Z,7.33
2019-02-14T07:27:39.268Z,8.48
2019-02-14T07:30:16.511Z,10.50
2019-02-14T07:32:44.740Z,10.05
2019-02-14T07:35:12.972Z,8.78
2019-02-14T07:37:41.212Z,8.20
2019-02-14T07:40:13.971Z,6.85
2019-02-14T07:42:42.203Z,7.03
2019-02-14T07:45:18.122Z,7.25
2019-02-14T07:47:46.340Z,18.67
2019-02-14T07:50:14.573Z,24.92
2019-02-14T07:52:42.790Z,7.62
2019-02-14T07:55:12.321Z,6.87
2019-02-14T07:57:40.899Z,6.78
2019-02-14T08:00:21.186Z,7.08
2019-02-14T08:02:49.408Z,7.28
2019-02-14T08:05:17.648Z,7.95
2019-02-14T08:07:45.897Z,7.08
2019-02-14T08:10:15.860Z,6.78
2019-02-14T08:12:44.092Z,6.75
2019-02-14T08:15:13.564Z,7.65
2019-02-14T08:17:41.776Z,9.00
2019-02-14T08:20:12.153Z,8.58
2019-02-14T08:22:40.396Z,10.90
2019-02-14T08:25:10.664Z,10.65
2019-02-14T08:27:38.890Z,9.45
2019-02-14T08:30:17.456Z,7.97
2019-02-14T08:32:45.674Z,7.70
2019-02-14T08:35:13.904Z,8.00
2019-02-14T08:37:45.517Z,7.60
2019-02-14T08:40:15.084Z,7.22
2019-02-14T08:42:43.330Z,8.30
2019-02-14T08:45:12.114Z,7.40
2019-02-14T08:47:40.324Z,6.95
2019-02-14T08:50:09.993Z,8.03
2019-02-14T08:52:38.228Z,7.47
2019-02-14T08:55:09.823Z,6.75
2019-02-14T08:57:38.005Z,7.37
2019-02-14T09:00:14.219Z,6.58
2019-02-14T09:02:42.449Z,7.30
2019-02-14T09:05:10.928Z,7.05
2019-02-14T09:07:39.179Z,7.42
2019-02-14T09:10:15.279Z,6.78
2019-02-14T09:12:43.500Z,6.75
2019-02-14T09:15:13.064Z,6.83
2019-02-14T09:17:41.277Z,7.90
2019-02-14T09:20:12.776Z,7.40
2019-02-14T09:22:40.992Z,8.40
2019-02-14T09:25:09.293Z,7.62
2019-02-14T09:27:37.492Z,7.83
2019-02-14T09:30:08.705Z,7.22
2019-02-14T09:32:37.100Z,7.85
2019-02-14T09:35:07.468Z,7.83
2019-02-14T09:37:35.948Z,7.75
2019-02-14T09:40:14.065Z,8.03
2019-02-14T09:42:42.572Z,8.35
2019-02-14T09:45:12.328Z,8.05
2019-02-14T09:47:40.551Z,8.03
2019-02-14T09:50:10.923Z,7.83
2019-02-14T09:52:40.035Z,8.38
2019-02-14T09:55:12.893Z,9.20
2019-02-14T09:57:41.174Z,8.58
2019-02-14T10:00:17.448Z,8.85
2019-02-14T10:02:45.672Z,8.10
2019-02-14T10:05:14.879Z,8.50
2019-02-14T10:07:43.152Z,8.30
2019-02-14T10:10:20.868Z,8.13
2019-02-14T10:12:49.092Z,8.55
2019-02-14T10:15:17.338Z,8.05
2019-02-14T10:17:45.651Z,8.78
2019-02-14T10:20:15.527Z,7.97
2019-02-14T10:22:43.783Z,8.30
2019-02-14T10:25:12.516Z,8.15
2019-02-14T10:27:41.034Z,8.30
2019-02-14T10:30:20.516Z,8.20
2019-02-14T10:32:48.752Z,7.90
2019-02-14T10:35:17.052Z,8.33
2019-02-14T10:37:45.283Z,8.03
2019-02-14T10:40:16.961Z,8.65
2019-02-14T10:42:45.175Z,8.80
2019-02-14T10:45:18.476Z,8.45
2019-02-14T10:47:46.696Z,8.08
2019-02-14T10:50:14.928Z,8.33
2019-02-14T10:52:43.167Z,8.85
2019-02-14T10:55:13.030Z,8.33
2019-02-14T10:57:41.296Z,8.35
2019-02-14T11:00:17.886Z,8.13
2019-02-14T11:02:46.405Z,7.75
2019-02-14T11:05:15.253Z,8.13
2019-02-14T11:07:43.484Z,7.90
2019-02-14T11:10:13.368Z,7.50
2019-02-14T11:12:41.612Z,7.95
2019-02-14T11:15:18.340Z,7.58
2019-02-14T11:17:48.693Z,7.62
2019-02-14T11:20:17.931Z,7.78
2019-02-14T11:22:48.657Z,7.47
2019-02-14T11:25:19.755Z,7.25
2019-02-14T11:27:48.010Z,6.95
2019-02-14T11:30:16.217Z,6.65
2019-02-14T11:32:44.455Z,7.00
2019-02-14T11:35:12.693Z,7.22
2019-02-14T11:37:41.261Z,6.65
2019-02-14T11:40:11.526Z,6.53
2019-02-14T11:42:39.822Z,6.83
2019-02-14T11:45:14.456Z,6.97
2019-02-14T11:47:43.185Z,6.95
2019-02-14T11:50:11.972Z,7.25
2019-02-14T11:52:40.210Z,6.67
2019-02-14T11:55:09.894Z,7.35
2019-02-14T11:57:38.145Z,7.00
2019-02-14T12:00:09.637Z,6.97
2019-02-14T12:02:38.047Z,7.20
2019-02-14T12:05:06.780Z,6.70
2019-02-14T12:07:35.091Z,6.53
2019-02-14T12:10:12.957Z,7.53
2019-02-14T12:12:33.824Z,7.45
2019-02-14T12:15:02.061Z,7.78
2019-02-14T12:17:30.292Z,8.48
2019-02-14T12:19:58.528Z,8.95
2019-02-14T12:22:26.757Z,11.20
2019-02-14T12:24:54.996Z,12.00
2019-02-14T12:27:23.242Z,14.18
2019-02-14T12:29:51.464Z,18.52
2019-02-14T12:32:19.707Z,18.95
2019-02-14T12:34:47.938Z,15.45
2019-02-14T12:37:16.233Z,14.90
2019-02-14T12:39:44.492Z,13.60
2019-02-14T12:42:12.776Z,13.70
2019-02-14T12:44:41.005Z,13.30
2019-02-14T12:47:09.249Z,10.93
2019-02-14T12:49:37.484Z,9.73
2019-02-14T12:52:06.036Z,10.25
2019-02-14T12:54:34.239Z,9.60
2019-02-14T12:57:02.492Z,9.83
2019-02-14T12:59:31.012Z,9.10
2019-02-14T13:01:59.252Z,9.03
2019-02-14T13:04:27.472Z,9.30
2019-02-14T13:06:55.712Z,7.90
2019-02-14T13:09:23.937Z,8.58
2019-02-14T13:11:52.168Z,7.67
2019-02-14T13:14:20.727Z,7.70
2019-02-14T13:16:48.967Z,7.28
2019-02-14T13:19:17.184Z,7.35
2019-02-14T13:21:45.420Z,7.28
2019-02-14T13:24:13.644Z,7.10
2019-02-14T13:26:41.879Z,6.80
2019-02-14T13:29:10.120Z,6.95
2019-02-14T13:31:38.375Z,6.42
2019-02-14T13:34:06.595Z,6.78
2019-02-14T13:36:35.116Z,6.92
2019-02-14T13:39:04.970Z,6.12
2019-02-14T13:41:33.244Z,5.83
2019-02-14T13:44:01.732Z,6.25
2019-02-14T13:46:30.220Z,5.85
2019-02-14T13:48:58.450Z,6.47
2019-02-14T13:51:26.676Z,6.25
2019-02-14T13:53:54.904Z,6.05
2019-02-14T13:56:23.145Z,6.95
2019-02-14T13:58:51.618Z,6.15
2019-02-14T14:01:19.860Z,6.22
2019-02-14T14:03:48.100Z,5.87
2019-02-14T14:06:16.353Z,5.72
2019-02-14T14:08:44.836Z,5.47
2019-02-14T14:11:13.072Z,6.00
2019-02-14T14:13:41.297Z,6.28
2019-02-14T14:16:09.526Z,6.20
2019-02-14T14:18:37.839Z,6.15
2019-02-14T14:21:06.368Z,5.50
2019-02-14T14:23:34.635Z,6.12
2019-02-14T14:26:02.866Z,5.20
2019-02-14T14:28:31.466Z,5.33
2019-02-14T14:30:59.707Z,4.58
2019-02-14T14:33:28.230Z,4.60
2019-02-14T14:35:56.454Z,4.65
2019-02-14T14:38:25.008Z,4.90
2019-02-14T14:40:53.235Z,4.55
2019-02-14T14:43:25.808Z,4.28
2019-02-14T14:45:55.667Z,4.78
2019-02-14T14:48:25.364Z,4.08
2019-02-14T14:50:53.929Z,4.15
2019-02-14T14:53:22.170Z,4.00
2019-02-14T14:55:50.816Z,4.00
2019-02-14T14:58:19.052Z,4.20
2019-02-14T15:00:47.279Z,3.92
2019-02-14T15:03:15.520Z,4.58
2019-02-14T15:05:43.742Z,3.87
2019-02-14T15:08:11.985Z,3.90
2019-02-14T15:10:40.199Z,4.28
2019-02-14T15:13:08.464Z,3.83
2019-02-14T15:15:36.684Z,3.80
2019-02-14T15:18:04.949Z,3.92
2019-02-14T15:20:33.144Z,3.58
2019-02-14T15:23:01.405Z,4.00
2019-02-14T15:25:29.633Z,4.62
2019-02-14T15:27:57.892Z,3.70
2019-02-14T15:30:26.124Z,4.20
2019-02-14T15:32:54.363Z,4.78
2019-02-14T15:35:22.580Z,4.28
2019-02-14T15:37:50.849Z,4.10
2019-02-14T15:40:19.069Z,4.60
2019-02-14T15:42:47.316Z,4.37
2019-02-14T15:45:15.903Z,4.50
2019-02-14T15:47:44.163Z,4.47
2019-02-14T15:50:12.678Z,4.03
2019-02-14T15:52:41.187Z,3.80
2019-02-14T15:55:09.456Z,3.90
2019-02-14T15:57:37.700Z,3.67
2019-02-14T16:00:10.697Z,3.75
2019-02-14T16:02:39.336Z,3.50
2019-02-14T16:05:08.032Z,3.55
2019-02-14T16:07:37.008Z,3.00
2019-02-14T16:10:17.642Z,3.30
2019-02-14T16:12:38.243Z,3.22
2019-02-14T16:15:09.115Z,3.02
2019-02-14T16:17:37.501Z,2.87
2019-02-14T16:20:07.467Z,3.42
2019-02-14T16:22:35.723Z,3.22
2019-02-14T16:25:06.821Z,3.50
2019-02-14T16:27:34.848Z,3.30
2019-02-14T16:30:04.850Z,3.15
2019-02-14T16:32:33.284Z,2.70
2019-02-14T16:35:01.502Z,3.15
2019-02-14T16:37:30.037Z,3.20
2019-02-14T16:39:58.530Z,2.85
2019-02-14T16:42:26.966Z,2.90
2019-02-14T16:44:55.199Z,2.67
2019-02-14T16:47:23.432Z,2.55
2019-02-14T16:49:51.682Z,2.83
2019-02-14T16:52:19.894Z,2.77
2019-02-14T16:54:48.144Z,3.22
2019-02-14T16:57:16.364Z,3.10
2019-02-14T16:59:44.840Z,4.03
2019-02-14T17:02:13.064Z,4.00
2019-02-14T17:04:41.338Z,3.50
2019-02-14T17:07:09.579Z,3.55
2019-02-14T17:09:37.820Z,3.47
2019-02-14T17:12:06.042Z,3.00
2019-02-14T17:14:34.285Z,3.80
2019-02-14T17:17:02.508Z,3.70
2019-02-14T17:19:30.753Z,3.65
2019-02-14T17:21:58.988Z,3.55
2019-02-14T17:24:27.218Z,3.77
2019-02-14T17:26:55.457Z,3.77
2019-02-14T17:29:23.691Z,3.35
2019-02-14T17:31:52.015Z,4.28
2019-02-14T17:34:20.573Z,4.25
2019-02-14T17:36:49.224Z,4.55
2019-02-14T17:39:17.445Z,4.45
2019-02-14T17:41:45.698Z,4.58
2019-02-14T17:44:14.106Z,4.87
2019-02-14T17:46:42.636Z,4.65
2019-02-14T17:49:10.860Z,7.75
2019-02-14T17:51:39.427Z,13.08
2019-02-14T17:54:07.701Z,13.95
2019-02-14T17:56:36.069Z,12.60
2019-02-14T17:59:04.300Z,10.05
2019-02-14T18:01:32.563Z,7.33
2019-02-14T18:04:00.880Z,6.97
2019-02-14T18:06:29.109Z,6.45
2019-02-14T18:08:57.435Z,6.92
2019-02-14T18:11:25.664Z,7.08
2019-02-14T18:13:53.912Z,6.60
2019-02-14T18:16:22.425Z,6.37
2019-02-14T18:18:50.728Z,7.10
2019-02-14T18:21:18.948Z,6.97
2019-02-14T18:23:47.224Z,7.67
2019-02-14T18:26:15.435Z,6.70
2019-02-14T18:28:43.680Z,6.15
2019-02-14T18:31:11.905Z,6.40
2019-02-14T18:33:40.148Z,6.05
2019-02-14T18:36:08.351Z,6.50
2019-02-14T18:38:36.632Z,6.37
2019-02-14T18:41:05.205Z,6.50
2019-02-14T18:43:33.442Z,6.53
2019-02-14T18:46:01.799Z,6.87
2019-02-14T18:48:30.043Z,6.78
2019-02-14T18:50:58.556Z,7.03
2019-02-14T18:53:26.797Z,6.33
2019-02-14T18:55:55.035Z,6.85
2019-02-14T18:58:26.483Z,6.80
2019-02-14T19:00:53.510Z,6.58
2019-02-14T19:03:21.760Z,7.42
2019-02-14T19:05:50.243Z,7.37
2019-02-14T19:08:18.488Z,6.95
2019-02-14T19:10:47.165Z,7.10
2019-02-14T19:13:15.417Z,6.95
2019-02-14T19:15:43.631Z,7.22
2019-02-14T19:18:11.884Z,6.30
2019-02-14T19:20:40.104Z,6.67
2019-02-14T19:23:08.348Z,6.65
2019-02-14T19:25:36.642Z,7.30
2019-02-14T19:28:04.880Z,7.00
2019-02-14T19:30:33.120Z,6.85
2019-02-14T19:33:01.355Z,7.03
2019-02-14T19:35:29.572Z,7.33
2019-02-14T19:37:58.101Z,6.83
2019-02-14T19:40:26.340Z,7.30
2019-02-14T19:42:54.586Z,7.53
2019-02-14T19:45:22.808Z,6.65
2019-02-14T19:47:51.044Z,7.10
2019-02-14T19:50:19.366Z,7.10
2019-02-14T19:52:47.584Z,7.12
2019-02-14T19:55:15.816Z,7.40
2019-02-14T19:57:44.032Z,7.53
2019-02-14T20:00:13.631Z,8.08
2019-02-14T20:02:41.854Z,7.75
2019-02-14T20:05:10.160Z,7.83
2019-02-14T20:07:38.385Z,8.00
2019-02-14T20:10:11.690Z,8.38
2019-02-14T20:12:39.987Z,7.85
2019-02-14T20:15:19.821Z,7.53
2019-02-14T20:17:48.040Z,8.00
2019-02-14T20:20:16.292Z,8.38
2019-02-14T20:22:44.539Z,20.52
2019-02-14T20:25:27.326Z,14.25
2019-02-14T20:27:56.749Z,11.12
2019-02-14T20:30:25.112Z,10.60
2019-02-14T20:32:53.688Z,7.70
2019-02-14T20:35:21.976Z,7.20
2019-02-14T20:37:50.529Z,7.95
2019-02-14T20:40:18.829Z,9.03
2019-02-14T20:42:47.063Z,6.78
2019-02-14T20:45:15.302Z,7.50
2019-02-14T20:47:43.529Z,7.50
2019-02-14T20:50:14.548Z,6.12
2019-02-14T20:55:13.513Z,6.90
2019-02-14T20:57:41.707Z,6.08
2019-02-14T21:00:12.523Z,6.05
2019-02-14T21:02:40.750Z,6.28
2019-02-14T21:05:08.994Z,7.05
2019-02-14T21:07:37.296Z,6.15
2019-02-14T21:10:06.946Z,7.85
2019-02-14T21:12:35.159Z,7.17
2019-02-14T21:15:03.659Z,7.40
2019-02-14T21:17:31.943Z,7.72
2019-02-14T21:20:00.305Z,7.40
2019-02-14T21:22:28.588Z,8.05
2019-02-14T21:24:56.828Z,7.20
2019-02-14T21:27:25.051Z,7.80
2019-02-14T21:29:53.287Z,7.72
2019-02-14T21:32:21.509Z,8.30
2019-02-14T21:34:49.910Z,8.28
2019-02-14T21:37:18.212Z,8.35
2019-02-14T21:39:46.433Z,8.20
2019-02-14T21:42:21.112Z,8.00
2019-02-14T21:44:45.019Z,8.55
2019-02-14T21:47:13.310Z,9.08
2019-02-14T21:49:41.655Z,9.00
2019-02-14T21:52:09.913Z,8.80
2019-02-14T21:54:38.341Z,8.48
2019-02-14T21:57:06.764Z,9.55
2019-02-14T21:59:34.996Z,8.15
2019-02-14T22:02:05.885Z,8.90
2019-02-14T22:04:33.198Z,8.65
2019-02-14T22:07:01.449Z,7.62
2019-02-14T22:09:29.798Z,7.62
2019-02-14T22:11:58.046Z,8.20
2019-02-14T22:14:26.261Z,7.75
2019-02-14T22:16:54.537Z,8.88
2019-02-14T22:19:22.909Z,8.25
2019-02-14T22:21:51.137Z,8.58
2019-02-14T22:24:19.660Z,8.45
2019-02-14T22:26:47.923Z,7.90
2019-02-14T22:29:16.140Z,8.35
2019-02-14T22:31:44.371Z,7.90
2019-02-14T22:34:12.586Z,8.53
2019-02-14T22:36:40.824Z,7.72
2019-02-14T22:39:09.104Z,8.13
2019-02-14T22:41:37.338Z,8.83
2019-02-14T22:44:05.638Z,8.00
2019-02-14T22:46:34.004Z,8.30
2019-02-14T22:49:02.263Z,7.95
2019-02-14T22:51:30.468Z,7.70
2019-02-14T22:53:58.683Z,9.23
2019-02-14T22:56:26.937Z,7.75
2019-02-14T22:58:55.172Z,8.48
2019-02-14T23:01:23.408Z,8.18
2019-02-14T23:03:51.884Z,7.50
2019-02-14T23:06:20.112Z,8.53
2019-02-14T23:08:48.336Z,8.75
2019-02-14T23:11:16.565Z,8.50
2019-02-14T23:13:44.804Z,8.55
2019-02-14T23:16:13.319Z,8.48
2019-02-14T23:18:41.540Z,7.87
2019-02-14T23:21:09.772Z,8.20
2019-02-14T23:23:38.004Z,8.45
2019-02-14T23:26:06.252Z,8.70
2019-02-14T23:28:34.472Z,9.08
2019-02-14T23:31:02.700Z,8.53
2019-02-14T23:33:31.240Z,8.78
2019-02-14T23:35:59.472Z,8.58
2019-02-14T23:38:28.036Z,8.60
2019-02-14T23:40:56.268Z,8.25
2019-02-14T23:43:24.541Z,8.83
2019-02-14T23:45:52.778Z,8.50
2019-02-14T23:48:20.992Z,9.00
2019-02-14T23:50:49.220Z,9.43
2019-02-14T23:53:17.459Z,9.35
2019-02-14T23:55:45.688Z,8.83
2019-02-14T23:58:13.905Z,8.88
